createdAt,value
2017-07-05T00:01:06.956Z,8.63
2017-07-05T00:03:34.028Z,8.23
2017-07-05T00:06:00.516Z,8.43
2017-07-05T00:08:27.013Z,9.02
2017-07-05T00:10:53.531Z,8.70
2017-07-05T00:13:21.222Z,8.75
2017-07-05T00:15:47.770Z,8.23
2017-07-05T00:18:14.220Z,8.20
2017-07-05T00:20:41.503Z,9.50
2017-07-05T00:23:08.058Z,8.77
2017-07-05T00:25:34.491Z,9.93
2017-07-05T00:28:01.585Z,9.02
2017-07-05T00:30:28.732Z,8.50
2017-07-05T00:32:55.979Z,9.00
2017-07-05T00:35:22.488Z,10.07
2017-07-05T00:37:48.976Z,9.80
2017-07-05T00:40:15.513Z,10.02
2017-07-05T00:42:41.953Z,10.13
2017-07-05T00:45:08.388Z,9.90
2017-07-05T00:47:34.825Z,9.93
2017-07-05T00:50:01.265Z,10.35
2017-07-05T00:52:27.783Z,11.32
2017-07-05T00:54:55.060Z,11.35
2017-07-05T00:57:21.538Z,10.95
2017-07-05T00:59:47.958Z,11.63
2017-07-05T01:02:15.196Z,11.60
2017-07-05T01:04:41.606Z,10.53
2017-07-05T01:07:08.047Z,9.53
2017-07-05T01:09:35.391Z,10.30
2017-07-05T01:12:01.824Z,10.40
2017-07-05T01:14:28.247Z,10.50
2017-07-05T01:16:54.800Z,10.30
2017-07-05T01:19:21.244Z,10.80
2017-07-05T01:21:48.454Z,10.60
2017-07-05T01:24:15.094Z,10.65
2017-07-05T01:26:41.576Z,11.10
2017-07-05T01:29:08.045Z,10.98
2017-07-05T01:31:34.487Z,11.40
2017-07-05T01:34:00.965Z,11.40
2017-07-05T01:36:27.454Z,10.80
2017-07-05T01:38:55.302Z,10.90
2017-07-05T01:41:21.762Z,10.30
2017-07-05T01:43:48.224Z,10.30
2017-07-05T01:46:14.830Z,10.02
2017-07-05T01:48:41.323Z,10.43
2017-07-05T01:51:07.873Z,10.60
2017-07-05T01:53:34.302Z,10.70
2017-07-05T01:56:00.856Z,10.90
2017-07-05T01:58:27.418Z,11.00
2017-07-05T02:00:53.856Z,10.30
2017-07-05T02:03:20.330Z,11.50
2017-07-05T02:05:46.916Z,11.02
2017-07-05T02:08:13.373Z,11.40
2017-07-05T02:10:39.816Z,11.10
2017-07-05T02:13:06.269Z,10.90
2017-07-05T02:15:32.732Z,11.57
2017-07-05T02:17:59.209Z,11.10
2017-07-05T02:20:25.690Z,10.80
2017-07-05T02:22:52.145Z,10.63
2017-07-05T02:25:18.597Z,10.80
2017-07-05T02:27:45.554Z,10.70
2017-07-05T02:30:12.035Z,11.60
2017-07-05T02:32:38.474Z,10.80
2017-07-05T02:35:04.975Z,10.43
2017-07-05T02:37:31.438Z,10.57
2017-07-05T02:39:57.898Z,10.35
2017-07-05T02:42:24.332Z,10.90
2017-07-05T02:44:51.617Z,11.20
2017-07-05T02:47:18.054Z,10.20
2017-07-05T02:49:45.254Z,10.80
2017-07-05T02:52:12.321Z,10.35
2017-07-05T02:54:38.875Z,10.75
2017-07-05T02:57:05.335Z,11.20
2017-07-05T02:59:31.774Z,11.43
2017-07-05T03:01:58.969Z,11.10
2017-07-05T03:04:25.476Z,11.00
2017-07-05T03:06:52.552Z,10.98
2017-07-05T03:09:19.029Z,10.50
2017-07-05T03:11:45.520Z,10.97
2017-07-05T03:14:12.052Z,10.68
2017-07-05T03:16:38.614Z,10.98
2017-07-05T03:19:05.083Z,10.85
2017-07-05T03:24:10.000Z,11.02
2017-07-05T03:26:36.508Z,11.20
2017-07-05T03:29:02.965Z,12.27
2017-07-05T03:31:29.422Z,12.02
2017-07-05T03:33:55.870Z,11.88
2017-07-05T03:36:23.152Z,12.07
2017-07-05T03:38:49.582Z,12.63
2017-07-05T03:41:16.808Z,12.23
2017-07-05T03:43:43.271Z,12.10
2017-07-05T03:46:09.716Z,12.13
2017-07-05T03:48:36.157Z,12.80
2017-07-05T03:51:02.607Z,12.00
2017-07-05T03:53:29.099Z,12.32
2017-07-05T03:55:55.514Z,12.70
2017-07-05T03:58:21.949Z,12.15
2017-07-05T04:00:49.307Z,12.70
2017-07-05T04:03:16.351Z,15.27
2017-07-05T04:05:42.771Z,12.85
2017-07-05T04:08:09.179Z,12.40
2017-07-05T04:10:35.629Z,12.13
2017-07-05T04:15:59.849Z,11.70
2017-07-05T04:18:26.350Z,11.75
2017-07-05T04:20:52.906Z,11.00
2017-07-05T04:23:19.465Z,11.75
2017-07-05T04:25:45.902Z,11.20
2017-07-05T04:28:13.116Z,10.40
2017-07-05T04:30:39.539Z,10.27
2017-07-05T04:33:06.723Z,9.80
2017-07-05T04:35:33.179Z,10.32
2017-07-05T04:37:59.736Z,11.33
2017-07-05T04:40:26.180Z,10.20
2017-07-05T04:42:53.372Z,12.37
2017-07-05T04:45:20.230Z,10.55
2017-07-05T04:47:46.669Z,10.45
2017-07-05T04:50:13.871Z,11.45
2017-07-05T04:52:40.317Z,9.90
2017-07-05T04:55:06.770Z,10.70
2017-07-05T04:57:33.213Z,10.23
2017-07-05T05:00:00.406Z,10.18
2017-07-05T05:02:26.850Z,9.63
2017-07-05T05:04:53.343Z,8.50
2017-07-05T05:07:19.832Z,8.90
2017-07-05T05:09:46.301Z,8.50
2017-07-05T05:12:13.539Z,8.60
2017-07-05T05:14:40.399Z,8.90
2017-07-05T05:17:06.868Z,8.00
2017-07-05T05:19:33.904Z,7.50
2017-07-05T05:22:00.448Z,6.97
2017-07-05T05:24:26.964Z,8.45
2017-07-05T05:26:53.463Z,6.70
2017-07-05T05:29:20.020Z,6.95
2017-07-05T05:31:46.436Z,6.57
2017-07-05T05:34:13.483Z,6.57
2017-07-05T05:36:39.993Z,6.40
2017-07-05T05:39:06.461Z,6.50
2017-07-05T05:41:32.884Z,6.30
2017-07-05T05:43:59.367Z,7.70
2017-07-05T05:48:42.689Z,6.10
2017-07-05T05:51:09.731Z,6.10
2017-07-05T05:53:36.912Z,6.00
2017-07-05T05:56:03.351Z,6.20
2017-07-05T05:58:30.601Z,6.00
2017-07-05T06:00:57.202Z,6.62
2017-07-05T06:03:39.176Z,5.90
2017-07-05T06:06:06.477Z,5.50
2017-07-05T06:13:09.167Z,6.20
2017-07-05T06:15:35.659Z,5.47
2017-07-05T06:18:02.187Z,5.40
2017-07-05T06:20:28.667Z,5.32
2017-07-05T06:22:55.099Z,5.28
2017-07-05T06:25:21.661Z,5.25
2017-07-05T06:27:48.097Z,5.50
2017-07-05T06:30:15.390Z,5.35
2017-07-05T06:32:41.833Z,4.80
2017-07-05T06:35:09.248Z,5.20
2017-07-05T06:37:35.665Z,4.97
2017-07-05T06:40:02.850Z,5.03
2017-07-05T06:42:29.318Z,4.80
2017-07-05T06:44:55.778Z,4.55
2017-07-05T06:47:22.226Z,4.80
2017-07-05T06:50:03.606Z,4.40
2017-07-05T06:52:30.170Z,5.00
2017-07-05T06:54:56.658Z,4.97
2017-07-05T06:57:23.111Z,5.47
2017-07-05T06:59:49.637Z,5.00
2017-07-05T07:02:16.104Z,4.90
2017-07-05T07:04:42.653Z,5.60
2017-07-05T07:07:09.080Z,5.70
2017-07-05T07:09:36.266Z,5.10
2017-07-05T07:12:03.440Z,5.43
2017-07-05T07:14:30.615Z,5.00
2017-07-05T07:16:57.796Z,5.40
2017-07-05T07:19:24.573Z,5.40
2017-07-05T07:21:51.017Z,5.00
2017-07-05T07:24:17.995Z,5.22
2017-07-05T07:26:44.645Z,5.40
2017-07-05T07:29:11.182Z,5.20
2017-07-05T07:31:38.477Z,5.10
2017-07-05T07:34:05.038Z,5.20
2017-07-05T07:36:31.490Z,5.30
2017-07-05T07:38:58.056Z,5.10
2017-07-05T07:41:24.763Z,5.10
2017-07-05T07:43:51.220Z,5.10
2017-07-05T07:46:17.696Z,5.50
2017-07-05T07:48:45.028Z,5.30
2017-07-05T07:51:11.567Z,4.80
2017-07-05T07:53:38.085Z,5.30
2017-07-05T07:56:05.268Z,5.20
2017-07-05T07:58:31.788Z,5.50
2017-07-05T08:00:58.207Z,5.45
2017-07-05T08:03:24.758Z,5.30
2017-07-05T08:05:51.827Z,5.03
2017-07-05T08:08:18.282Z,5.20
2017-07-05T08:10:44.758Z,5.22
2017-07-05T08:13:11.368Z,5.10
2017-07-05T08:15:37.856Z,5.15
2017-07-05T08:18:04.305Z,5.10
2017-07-05T08:20:31.601Z,5.00
2017-07-05T08:22:58.068Z,4.90
2017-07-05T08:25:24.528Z,4.68
2017-07-05T08:27:50.996Z,4.90
2017-07-05T08:30:19.267Z,5.25
2017-07-05T08:32:45.812Z,4.57
2017-07-05T08:35:12.372Z,5.20
2017-07-05T08:37:38.931Z,4.75
2017-07-05T08:40:05.362Z,4.55
2017-07-05T08:42:32.659Z,4.78
2017-07-05T08:44:59.122Z,5.00
2017-07-05T08:47:26.101Z,5.10
2017-07-05T08:49:52.547Z,4.80
2017-07-05T08:52:19.053Z,5.07
2017-07-05T08:54:45.655Z,5.10
2017-07-05T08:57:12.214Z,5.00
2017-07-05T08:59:39.209Z,4.70
2017-07-05T09:02:05.685Z,4.70
2017-07-05T09:04:32.189Z,5.05
2017-07-05T09:06:59.368Z,4.80
2017-07-05T09:09:25.848Z,4.80
2017-07-05T09:11:52.369Z,5.43
2017-07-05T09:14:19.611Z,4.95
2017-07-05T09:16:46.530Z,5.65
2017-07-05T09:19:12.990Z,5.70
2017-07-05T09:21:39.537Z,5.10
2017-07-05T09:24:06.034Z,5.47
2017-07-05T09:26:32.555Z,5.25
2017-07-05T09:28:59.047Z,5.70
2017-07-05T09:31:25.570Z,5.50
2017-07-05T09:33:51.997Z,5.47
2017-07-05T09:36:19.197Z,5.78
2017-07-05T09:38:45.688Z,5.80
2017-07-05T09:41:12.157Z,6.60
2017-07-05T09:43:38.664Z,6.20
2017-07-05T09:46:05.119Z,5.90
2017-07-05T09:48:31.577Z,5.68
2017-07-05T09:50:58.057Z,5.70
2017-07-05T09:53:24.696Z,6.00
2017-07-05T09:55:51.183Z,5.80
2017-07-05T09:58:17.711Z,6.00
2017-07-05T10:00:44.230Z,6.25
2017-07-05T10:03:10.730Z,5.70
2017-07-05T10:05:37.265Z,5.80
2017-07-05T10:08:04.661Z,5.75
2017-07-05T10:10:31.219Z,5.60
2017-07-05T10:12:57.774Z,6.25
2017-07-05T10:15:24.231Z,6.40
2017-07-05T10:17:51.043Z,6.10
2017-07-05T10:20:17.595Z,5.85
2017-07-05T10:22:44.595Z,5.90
2017-07-05T10:25:11.179Z,5.00
2017-07-05T10:27:38.276Z,6.00
2017-07-05T10:30:06.079Z,5.50
2017-07-05T10:32:33.104Z,5.20
2017-07-05T10:34:59.745Z,5.30
2017-07-05T10:37:27.325Z,5.65
2017-07-05T10:39:54.803Z,5.70
2017-07-05T10:42:22.017Z,5.50
2017-07-05T10:44:48.510Z,5.90
2017-07-05T10:47:16.092Z,6.22
2017-07-05T10:49:43.883Z,5.95
2017-07-05T10:52:10.395Z,6.30
2017-07-05T10:54:37.197Z,6.40
2017-07-05T10:57:04.677Z,6.25
2017-07-05T10:59:31.731Z,6.30
2017-07-05T11:01:58.249Z,6.20
2017-07-05T11:04:25.934Z,6.20
2017-07-05T11:06:52.485Z,6.10
2017-07-05T11:09:19.180Z,6.50
2017-07-05T11:11:46.785Z,7.20
2017-07-05T11:14:13.276Z,6.25
2017-07-05T11:16:40.617Z,6.82
2017-07-05T11:19:07.106Z,7.32
2017-07-05T11:21:34.496Z,7.30
2017-07-05T11:24:01.046Z,7.35
2017-07-05T11:26:28.542Z,7.78
2017-07-05T11:28:55.202Z,7.70
2017-07-05T11:31:21.915Z,7.37
2017-07-05T11:33:48.441Z,6.90
2017-07-05T11:36:14.919Z,7.20
2017-07-05T11:38:41.703Z,8.30
2017-07-05T11:41:08.407Z,8.68
2017-07-05T11:43:35.059Z,8.25
2017-07-05T11:46:01.715Z,7.80
2017-07-05T11:48:28.415Z,8.10
2017-07-05T11:50:54.883Z,8.57
2017-07-05T11:53:21.828Z,7.70
2017-07-05T11:55:49.028Z,8.65
2017-07-05T11:58:15.676Z,8.55
2017-07-05T12:00:42.137Z,8.35
2017-07-05T12:03:09.281Z,8.40
2017-07-05T12:05:37.105Z,7.90
2017-07-05T12:08:03.920Z,8.20
2017-07-05T12:10:30.680Z,8.70
2017-07-05T12:12:57.583Z,7.90
2017-07-05T12:15:24.119Z,7.93
2017-07-05T12:17:50.835Z,8.17
2017-07-05T12:20:18.245Z,7.80
2017-07-05T12:22:45.863Z,7.85
2017-07-05T12:25:12.672Z,8.20
2017-07-05T12:27:39.795Z,8.07
2017-07-05T12:30:06.916Z,8.02
2017-07-05T12:32:33.443Z,8.60
2017-07-05T12:35:01.196Z,8.40
2017-07-05T12:37:27.636Z,8.27
2017-07-05T12:39:54.293Z,8.02
2017-07-05T12:42:20.976Z,8.18
2017-07-05T12:44:47.954Z,8.27
2017-07-05T12:47:14.682Z,8.38
2017-07-05T12:49:41.343Z,8.70
2017-07-05T12:52:08.010Z,8.70
2017-07-05T12:54:35.006Z,9.55
2017-07-05T12:57:01.632Z,9.60
2017-07-05T12:59:28.538Z,9.55
2017-07-05T13:01:56.419Z,9.70
2017-07-05T13:04:23.499Z,11.10
2017-07-05T13:06:51.775Z,10.30
2017-07-05T13:09:18.516Z,10.60
2017-07-05T13:11:45.148Z,10.45
2017-07-05T13:14:12.468Z,10.80
2017-07-05T13:16:40.081Z,10.52
2017-07-05T13:19:07.307Z,11.02
2017-07-05T13:21:34.989Z,10.98
2017-07-05T13:24:01.440Z,11.30
2017-07-05T13:26:28.459Z,10.60
2017-07-05T13:28:55.088Z,9.27
2017-07-05T13:31:23.145Z,9.48
2017-07-05T13:33:49.810Z,9.45
2017-07-05T13:36:18.944Z,9.80
2017-07-05T13:38:46.216Z,9.75
2017-07-05T13:41:13.228Z,9.90
2017-07-05T13:43:40.828Z,9.10
2017-07-05T13:46:08.173Z,8.90
2017-07-05T13:48:35.799Z,9.50
2017-07-05T13:51:03.763Z,9.13
2017-07-05T13:53:30.726Z,9.90
2017-07-05T13:55:57.343Z,9.30
2017-07-05T13:58:24.352Z,9.60
2017-07-05T14:00:50.796Z,8.80
2017-07-05T14:03:17.325Z,9.17
2017-07-05T14:05:43.985Z,9.20
2017-07-05T14:08:10.500Z,9.02
2017-07-05T14:10:37.407Z,9.13
2017-07-05T14:13:04.007Z,9.30
2017-07-05T14:15:30.476Z,8.10
2017-07-05T14:17:57.800Z,8.25
2017-07-05T14:20:24.360Z,8.82
2017-07-05T14:22:50.973Z,8.80
2017-07-05T14:25:18.333Z,8.25
2017-07-05T14:27:45.074Z,8.50
2017-07-05T14:30:12.271Z,8.60
2017-07-05T14:32:39.972Z,7.80
2017-07-05T14:35:07.208Z,9.00
2017-07-05T14:37:33.691Z,8.30
2017-07-05T14:40:00.403Z,8.60
2017-07-05T14:42:27.800Z,8.73
2017-07-05T14:44:54.338Z,8.45
2017-07-05T14:47:21.082Z,8.00
2017-07-05T14:50:02.675Z,8.10
2017-07-05T14:52:31.097Z,7.80
2017-07-05T14:54:57.987Z,7.57
2017-07-05T14:57:24.826Z,7.90
2017-07-05T14:59:52.972Z,7.70
2017-07-05T15:02:19.574Z,7.97
2017-07-05T15:04:46.387Z,9.10
2017-07-05T15:07:14.379Z,8.30
2017-07-05T15:09:41.147Z,8.20
2017-07-05T15:12:08.713Z,8.00
2017-07-05T15:14:36.239Z,8.00
2017-07-05T15:17:03.633Z,7.80
2017-07-05T15:19:30.126Z,8.05
2017-07-05T15:21:57.223Z,7.75
2017-07-05T15:24:24.703Z,8.10
2017-07-05T15:26:51.798Z,7.95
2017-07-05T15:29:19.098Z,7.87
2017-07-05T15:31:45.748Z,8.30
2017-07-05T15:34:13.488Z,8.00
2017-07-05T15:36:41.182Z,7.65
2017-07-05T15:39:07.867Z,8.55
2017-07-05T15:41:35.457Z,7.75
2017-07-05T15:44:03.443Z,8.18
2017-07-05T15:46:29.896Z,8.20
2017-07-05T15:48:57.421Z,8.20
2017-07-05T15:51:24.696Z,8.60
2017-07-05T15:53:51.925Z,8.25
2017-07-05T15:56:18.575Z,8.50
2017-07-05T15:58:45.711Z,8.30
2017-07-05T16:01:12.530Z,8.82
2017-07-05T16:03:39.320Z,8.57
2017-07-05T16:06:06.026Z,8.90
2017-07-05T16:08:32.730Z,8.80
2017-07-05T16:10:59.630Z,8.48
2017-07-05T16:13:26.968Z,8.60
2017-07-05T16:15:53.696Z,8.50
2017-07-05T16:18:20.788Z,8.10
2017-07-05T16:20:47.860Z,8.40
2017-07-05T16:23:14.516Z,8.75
2017-07-05T16:25:41.076Z,8.40
2017-07-05T16:28:07.736Z,8.68
2017-07-05T16:30:34.606Z,9.55
2017-07-05T16:33:01.159Z,8.77
2017-07-05T16:35:27.941Z,8.88
2017-07-05T16:37:54.656Z,8.43
2017-07-05T16:40:22.141Z,9.18
2017-07-05T16:42:48.826Z,8.50
2017-07-05T16:45:15.979Z,9.60
2017-07-05T16:47:43.381Z,8.68
2017-07-05T16:50:10.067Z,8.50
2017-07-05T16:52:36.804Z,8.60
2017-07-05T16:55:03.331Z,8.60
2017-07-05T16:57:30.657Z,8.63
2017-07-05T16:59:58.804Z,8.32
2017-07-05T17:02:25.389Z,8.77
2017-07-05T17:04:52.455Z,8.93
2017-07-05T17:07:19.422Z,9.88
2017-07-05T17:09:46.188Z,9.90
2017-07-05T17:12:13.062Z,9.55
2017-07-05T17:14:42.551Z,8.27
2017-07-05T17:17:10.564Z,8.43
2017-07-05T17:19:37.269Z,9.20
2017-07-05T17:22:03.897Z,9.30
2017-07-05T17:24:31.261Z,8.20
2017-07-05T17:26:58.537Z,8.50
2017-07-05T17:29:25.400Z,8.63
2017-07-05T17:31:52.266Z,8.90
2017-07-05T17:34:19.030Z,8.40
2017-07-05T17:36:45.943Z,9.13
2017-07-05T17:39:12.658Z,8.60
2017-07-05T17:41:39.525Z,8.10
2017-07-05T17:44:06.365Z,8.18
2017-07-05T17:46:32.889Z,8.02
2017-07-05T17:48:59.404Z,8.10
2017-07-05T17:51:26.670Z,8.60
2017-07-05T17:53:53.985Z,8.63
2017-07-05T17:56:20.834Z,8.55
2017-07-05T17:58:47.736Z,8.50
2017-07-05T18:01:15.349Z,8.70
2017-07-05T18:03:44.430Z,9.52
2017-07-05T18:06:10.897Z,9.50
2017-07-05T18:08:37.446Z,9.25
2017-07-05T18:11:06.511Z,8.70
2017-07-05T18:13:33.083Z,9.60
2017-07-05T18:16:00.536Z,9.63
2017-07-05T18:18:27.634Z,8.23
2017-07-05T18:20:54.692Z,9.20
2017-07-05T18:23:21.244Z,8.80
2017-07-05T18:25:48.620Z,8.75
2017-07-05T18:28:15.279Z,8.80
2017-07-05T18:30:41.806Z,8.70
2017-07-05T18:33:09.280Z,9.20
2017-07-05T18:35:36.798Z,8.40
2017-07-05T18:38:03.266Z,8.85
2017-07-05T18:40:30.095Z,9.00
2017-07-05T18:42:57.265Z,8.93
2017-07-05T18:45:24.173Z,8.50
2017-07-05T18:47:50.897Z,8.30
2017-07-05T18:50:17.887Z,8.93
2017-07-05T18:52:44.635Z,8.90
2017-07-05T18:55:11.149Z,9.10
2017-07-05T18:58:25.122Z,8.80
2017-07-05T19:00:51.887Z,8.60
2017-07-05T19:03:18.956Z,9.07
2017-07-05T19:05:46.336Z,9.38
2017-07-05T19:08:14.629Z,9.80
2017-07-05T19:10:41.257Z,11.40
2017-07-05T19:13:09.517Z,10.05
2017-07-05T19:15:36.973Z,10.80
2017-07-05T19:18:05.086Z,13.97
2017-07-05T19:20:33.966Z,11.60
2017-07-05T19:23:00.826Z,11.30
2017-07-05T19:25:27.388Z,9.10
2017-07-05T19:27:54.667Z,9.38
2017-07-05T19:30:21.219Z,9.77
2017-07-05T19:32:47.883Z,9.00
2017-07-05T19:35:14.549Z,9.60
2017-07-05T19:37:41.085Z,10.80
2017-07-05T19:40:08.401Z,9.77
2017-07-05T19:42:34.962Z,10.90
2017-07-05T19:45:02.396Z,11.60
2017-07-05T19:47:29.690Z,10.45
2017-07-05T19:49:57.072Z,10.77
2017-07-05T19:52:24.151Z,10.88
2017-07-05T19:54:51.103Z,10.80
2017-07-05T19:57:17.663Z,10.00
2017-07-05T19:59:44.254Z,9.80
2017-07-05T20:02:11.087Z,9.60
2017-07-05T20:04:37.741Z,9.88
2017-07-05T20:07:04.252Z,9.50
2017-07-05T20:09:30.940Z,9.00
2017-07-05T20:11:58.266Z,9.50
2017-07-05T20:14:24.902Z,10.10
2017-07-05T20:16:53.707Z,10.90
2017-07-05T20:19:21.595Z,10.80
2017-07-05T20:21:49.305Z,10.55
2017-07-05T20:24:17.270Z,10.20
2017-07-05T20:26:43.990Z,10.50
2017-07-05T20:29:11.308Z,10.65
2017-07-05T20:31:38.999Z,10.32
2017-07-05T20:34:05.605Z,10.55
2017-07-05T20:36:34.330Z,10.85
2017-07-05T20:39:01.837Z,11.13
2017-07-05T20:41:28.398Z,10.90
2017-07-05T20:43:55.157Z,11.37
2017-07-05T20:46:21.805Z,10.82
2017-07-05T20:48:49.199Z,10.90
2017-07-05T20:51:17.287Z,11.27
2017-07-05T20:53:43.848Z,11.60
2017-07-05T20:56:10.813Z,10.82
2017-07-05T20:58:37.373Z,11.23
2017-07-05T21:01:03.928Z,10.73
2017-07-05T21:03:30.698Z,11.55
2017-07-05T21:05:57.250Z,13.38
2017-07-05T21:08:23.758Z,13.90
2017-07-05T21:10:50.478Z,12.40
2017-07-05T21:13:17.026Z,11.90
2017-07-05T21:15:43.895Z,10.90
2017-07-05T21:18:11.170Z,10.65
2017-07-05T21:20:37.932Z,10.90
2017-07-05T21:23:04.596Z,11.95
2017-07-05T21:25:33.302Z,12.52
2017-07-05T21:28:00.575Z,11.95
2017-07-05T21:30:27.086Z,12.25
2017-07-05T21:32:53.526Z,13.82
2017-07-05T21:35:20.152Z,13.57
2017-07-05T21:37:47.424Z,13.80
2017-07-05T21:40:13.909Z,12.88
2017-07-05T21:42:40.365Z,12.80
2017-07-05T21:45:06.991Z,14.75
2017-07-05T21:47:33.461Z,13.35
2017-07-05T21:50:00.008Z,13.27
2017-07-05T21:52:26.563Z,12.70
2017-07-05T21:54:53.094Z,13.45
2017-07-05T21:57:19.557Z,13.30
2017-07-05T21:59:46.915Z,13.60
2017-07-05T22:02:13.540Z,13.10
2017-07-05T22:04:40.071Z,13.50
2017-07-05T22:07:06.581Z,14.52
2017-07-05T22:09:33.063Z,14.38
2017-07-05T22:12:00.364Z,14.23
2017-07-05T22:14:26.832Z,15.07
2017-07-05T22:16:53.892Z,14.05
2017-07-05T22:19:20.338Z,14.27
2017-07-05T22:21:47.617Z,13.85
2017-07-05T22:24:14.057Z,14.05
2017-07-05T22:26:41.228Z,14.15
2017-07-05T22:29:08.408Z,13.60
2017-07-05T22:31:35.080Z,14.20
2017-07-05T22:34:01.637Z,14.15
2017-07-05T22:36:28.087Z,14.48
2017-07-05T22:38:54.550Z,14.25
2017-07-05T22:41:20.991Z,15.65
2017-07-05T22:43:48.196Z,14.82
2017-07-05T22:46:14.663Z,14.20
2017-07-05T22:48:41.130Z,15.68
2017-07-05T22:51:07.647Z,13.45
2017-07-05T22:53:34.073Z,13.82
2017-07-05T22:56:00.499Z,14.15
2017-07-05T22:58:26.920Z,14.15
2017-07-05T23:00:53.370Z,14.52
2017-07-05T23:03:20.153Z,14.23
2017-07-05T23:05:46.588Z,14.60
2017-07-05T23:08:13.251Z,13.20
2017-07-05T23:10:39.810Z,14.00
2017-07-05T23:13:06.241Z,14.10
2017-07-05T23:15:33.437Z,13.60
2017-07-05T23:17:59.884Z,13.93
2017-07-05T23:20:26.334Z,14.23
2017-07-05T23:22:53.541Z,13.70
2017-07-05T23:25:20.087Z,14.43
2017-07-05T23:27:46.541Z,14.48
2017-07-05T23:30:13.010Z,14.63
2017-07-05T23:32:39.773Z,16.15
2017-07-05T23:35:06.315Z,15.63
2017-07-05T23:37:32.763Z,15.23
2017-07-05T23:39:59.955Z,15.93
2017-07-05T23:42:26.420Z,16.42
2017-07-05T23:44:52.882Z,15.13
2017-07-05T23:47:19.413Z,16.27
2017-07-05T23:49:46.400Z,16.50
2017-07-05T23:59:00.689Z,16.20
